Alexandria, New York
Current Conditions -  °F | °C
As of 8:58 AM on Friday 31 Oct 2014 (Local Time) from KGTB Reporting Station
Overcast Overcast  
Wind Chill:   Ceiling: 6000
Heat Index:   Visibility: 10mi
Dew Point:   Wind: 3mph
Humidity: 97%   Direction: 120°ESE
Pressure: 30.02"   Gusts: NA
Location:  44.3057°N, 75.9374°W
Report Text: KGTB 311258Z AUTO 12003KT 10SM OVC060 02/02 A3002 RMK AO2 SLP172 T00210017
Loading
Personal Weather Stations






























Interactive Weather Map
Tropical Storm Tracking
New forecast layout! Learn more

10-Day Weather Forecast

Advertisements
Track Severe Weather on mobile